Terminal Aerodrome Forecast
Issued by NWS Cleveland, OH

Home | Current Version | Previous Version | Graphics & Text | Print | Product List | Glossary On
Versions: 1 2 3 4 5 6 7 8 9 10 11 12 13 14 15 16 17 18 19 20 21 22 23 24 25 26
000
FTUS41 KCLE 241100
TAFMFD
TAF
KMFD 241140Z 2412/2512 14010KT 6SM BR OVC006
      TEMPO 2412/2414 4SM BR OVC003
     FM241600 16015G25KT P6SM OVC012
     FM242200 18020G35KT 4SM -SHRA OVC012
     FM250000 24022G40KT P6SM OVC012
     FM250800 25015G30KT 3SM -SHSN OVC008
     FM251100 25012G22KT P6SM OVC015=

USA.gov is the U.S. government's official web portal to all federal, state and local government web resources and services.